createdAt,value
2022-10-28T00:01:49.023Z,9.30
2022-10-28T00:04:18.925Z,10.23
2022-10-28T00:06:48.686Z,10.20
2022-10-28T00:09:18.433Z,10.90
2022-10-28T00:11:48.301Z,9.90
2022-10-28T00:14:18.018Z,9.80
2022-10-28T00:16:47.746Z,9.57
2022-10-28T00:19:18.078Z,8.93
2022-10-28T00:21:47.923Z,9.40
2022-10-28T00:24:17.629Z,9.27
2022-10-28T00:26:47.301Z,10.23
2022-10-28T00:29:20.479Z,8.23
2022-10-28T00:31:48.871Z,8.98
2022-10-28T00:34:24.067Z,9.20
2022-10-28T00:36:53.736Z,8.07
2022-10-28T00:39:27.610Z,8.07
2022-10-28T00:42:04.407Z,8.63
2022-10-28T00:45:00.205Z,7.60
2022-10-28T00:48:01.760Z,9.00
2022-10-28T00:50:45.551Z,8.32
2022-10-28T00:53:30.067Z,7.60
2022-10-28T00:56:03.794Z,7.78
2022-10-28T00:58:33.507Z,8.27
2022-10-28T01:01:03.395Z,7.25
2022-10-28T01:03:33.753Z,8.02
2022-10-28T01:06:06.221Z,8.05
2022-10-28T01:08:36.404Z,7.70
2022-10-28T01:11:51.437Z,7.05
2022-10-28T01:14:40.902Z,7.53
2022-10-28T01:17:51.731Z,6.95
2022-10-28T01:20:48.278Z,9.32
2022-10-28T01:23:43.209Z,8.43
2022-10-28T01:27:06.418Z,8.02
2022-10-28T01:30:15.085Z,6.90
2022-10-28T01:33:21.415Z,7.57
2022-10-28T01:36:20.767Z,6.07
2022-10-28T01:39:18.211Z,6.60
2022-10-28T01:42:36.761Z,7.90
2022-10-28T01:45:29.163Z,8.25
2022-10-28T01:48:12.514Z,7.85
2022-10-28T01:51:06.930Z,8.68
2022-10-28T01:53:44.034Z,7.72
2022-10-28T01:56:50.076Z,8.18
2022-10-28T01:59:28.110Z,6.30
2022-10-28T02:01:58.136Z,7.18
2022-10-28T02:04:28.170Z,7.45
2022-10-28T02:07:01.663Z,7.53
2022-10-28T02:10:02.646Z,7.10
2022-10-28T02:12:38.047Z,7.50
2022-10-28T02:16:06.929Z,7.13
2022-10-28T02:19:10.572Z,7.18
2022-10-28T02:22:34.134Z,7.03
2022-10-28T02:25:33.974Z,6.88
2022-10-28T02:28:21.085Z,8.15
2022-10-28T02:31:29.584Z,7.50
2022-10-28T02:34:20.064Z,7.35
2022-10-28T02:36:59.649Z,7.80
2022-10-28T02:39:42.522Z,8.32
2022-10-28T02:42:31.863Z,7.95
2022-10-28T02:48:01.792Z,7.85
2022-10-28T02:50:46.962Z,7.90
2022-10-28T02:53:36.944Z,6.93
2022-10-28T02:56:13.990Z,8.63
2022-10-28T02:58:45.918Z,8.32
2022-10-28T03:01:16.162Z,8.90
2022-10-28T03:03:46.605Z,7.05
2022-10-28T03:06:16.673Z,7.03
2022-10-28T03:08:46.704Z,7.78
2022-10-28T03:11:16.792Z,7.50
2022-10-28T03:13:46.883Z,7.63
2022-10-28T03:16:16.871Z,6.55
2022-10-28T03:18:46.990Z,6.18
2022-10-28T03:21:16.991Z,8.05
2022-10-28T03:23:47.141Z,7.93
2022-10-28T03:26:17.202Z,7.35
2022-10-28T03:28:47.312Z,8.13
2022-10-28T03:31:17.633Z,6.88
2022-10-28T03:33:47.610Z,7.68
2022-10-28T03:36:17.629Z,7.30
2022-10-28T03:38:47.626Z,8.23
2022-10-28T03:41:17.622Z,8.85
2022-10-28T03:43:47.902Z,7.10
2022-10-28T03:46:17.888Z,7.45
2022-10-28T03:48:47.963Z,6.60
2022-10-28T03:51:18.573Z,7.47
2022-10-28T03:53:48.650Z,7.07
2022-10-28T03:56:18.634Z,7.10
2022-10-28T03:58:50.155Z,9.00
2022-10-28T04:01:20.240Z,8.32
2022-10-28T04:03:50.272Z,8.48
2022-10-28T04:06:20.321Z,8.85
2022-10-28T04:08:50.281Z,8.68
2022-10-28T04:11:20.257Z,7.65
2022-10-28T04:13:50.293Z,8.32
2022-10-28T04:16:20.238Z,7.55
2022-10-28T04:18:50.261Z,8.77
2022-10-28T04:21:20.287Z,8.77
2022-10-28T04:23:50.359Z,8.55
2022-10-28T04:26:20.348Z,8.13
2022-10-28T04:28:50.575Z,8.05
2022-10-28T04:31:20.548Z,8.20
2022-10-28T04:33:50.505Z,9.00
2022-10-28T04:36:20.469Z,7.88
2022-10-28T04:38:52.016Z,7.47
2022-10-28T04:41:21.976Z,8.57
2022-10-28T04:43:52.065Z,7.80
2022-10-28T04:46:22.425Z,7.60
2022-10-28T04:48:52.204Z,7.90
2022-10-28T04:51:21.772Z,8.15
2022-10-28T04:53:51.584Z,8.73
2022-10-28T04:56:21.324Z,8.15
2022-10-28T04:58:51.108Z,8.38
2022-10-28T05:01:20.900Z,8.32
2022-10-28T05:03:50.644Z,9.02
2022-10-28T05:06:20.445Z,8.15
2022-10-28T05:08:50.327Z,9.52
2022-10-28T05:11:20.205Z,8.70
2022-10-28T05:13:49.936Z,8.57
2022-10-28T05:16:20.004Z,8.20
2022-10-28T05:18:49.738Z,8.75
2022-10-28T05:21:19.742Z,8.73
2022-10-28T05:23:49.315Z,8.38
2022-10-28T05:26:19.450Z,8.32
2022-10-28T05:28:51.064Z,9.27
2022-10-28T05:31:21.135Z,10.18
2022-10-28T05:33:50.903Z,8.20
2022-10-28T05:36:20.544Z,8.45
2022-10-28T05:38:50.432Z,8.13
2022-10-28T05:41:17.792Z,8.40
2022-10-28T05:43:47.518Z,8.40
2022-10-28T05:46:17.329Z,9.43
2022-10-28T05:48:47.083Z,8.85
2022-10-28T05:51:16.845Z,9.75
2022-10-28T05:53:46.658Z,9.98
2022-10-28T05:56:13.931Z,9.65
2022-10-28T05:58:44.432Z,8.77
2022-10-28T06:01:14.545Z,10.48
2022-10-28T06:03:44.650Z,9.30
2022-10-28T06:06:14.627Z,9.85
2022-10-28T06:08:44.361Z,8.63
2022-10-28T06:11:12.680Z,8.65
2022-10-28T06:13:42.536Z,9.18
2022-10-28T06:16:12.456Z,8.13
2022-10-28T06:18:42.159Z,8.98
2022-10-28T06:21:12.121Z,9.07
2022-10-28T06:23:41.813Z,9.57
2022-10-28T06:26:11.833Z,11.43
2022-10-28T06:28:41.475Z,9.02
2022-10-28T06:31:11.192Z,9.07
2022-10-28T06:33:41.144Z,8.90
2022-10-28T06:36:10.842Z,10.38
2022-10-28T06:38:40.562Z,10.05
2022-10-28T06:41:10.474Z,9.73
2022-10-28T06:43:40.208Z,10.50
2022-10-28T06:46:11.678Z,9.68
2022-10-28T06:48:41.563Z,10.93
2022-10-28T06:51:11.540Z,10.05
2022-10-28T06:53:41.325Z,10.57
2022-10-28T06:56:11.278Z,9.45
2022-10-28T06:58:41.410Z,9.77
2022-10-28T07:01:11.220Z,9.20
2022-10-28T07:03:41.916Z,8.57
2022-10-28T07:06:11.283Z,8.88
2022-10-28T07:08:41.517Z,9.60
2022-10-28T07:11:14.544Z,9.15
2022-10-28T07:13:44.253Z,8.35
2022-10-28T07:16:15.380Z,8.80
2022-10-28T07:18:42.639Z,8.43
2022-10-28T07:21:14.102Z,8.07
2022-10-28T07:23:44.006Z,8.70
2022-10-28T07:26:13.409Z,8.73
2022-10-28T07:28:43.224Z,8.55
2022-10-28T07:31:13.334Z,7.82
2022-10-28T07:33:43.531Z,7.60
2022-10-28T07:36:13.103Z,7.70
2022-10-28T07:38:42.892Z,6.95
2022-10-28T07:41:12.589Z,7.22
2022-10-28T07:43:42.618Z,7.45
2022-10-28T07:46:12.489Z,7.10
2022-10-28T07:48:42.204Z,7.38
2022-10-28T07:51:15.977Z,7.10
2022-10-28T07:53:43.592Z,6.93
2022-10-28T07:56:13.877Z,6.95
2022-10-28T07:58:45.416Z,7.20
2022-10-28T08:01:22.624Z,6.30
2022-10-28T08:03:52.739Z,6.65
2022-10-28T08:06:22.804Z,6.13
2022-10-28T08:08:56.757Z,6.82
2022-10-28T08:11:25.000Z,6.30
2022-10-28T08:13:55.999Z,6.55
2022-10-28T08:16:26.794Z,5.70
2022-10-28T08:18:57.003Z,6.80
2022-10-28T08:21:27.263Z,5.85
2022-10-28T08:23:56.232Z,6.95
2022-10-28T08:26:24.297Z,7.43
2022-10-28T08:28:54.293Z,6.97
2022-10-28T08:31:24.180Z,6.15
2022-10-28T08:33:53.964Z,6.10
2022-10-28T08:36:23.709Z,6.03
2022-10-28T08:38:53.497Z,5.43
2022-10-28T08:41:38.133Z,5.47
2022-10-28T08:45:01.980Z,5.50
2022-10-28T08:48:09.724Z,5.22
2022-10-28T08:51:03.401Z,5.88
2022-10-28T08:53:53.440Z,5.53
2022-10-28T08:56:46.239Z,5.80
2022-10-28T08:59:32.006Z,5.63
2022-10-28T09:02:18.625Z,5.47
2022-10-28T09:05:26.036Z,5.80
2022-10-28T09:07:58.518Z,4.90
2022-10-28T09:11:38.946Z,5.18
2022-10-28T09:14:50.346Z,5.15
2022-10-28T09:17:37.163Z,4.75
2022-10-28T09:20:42.262Z,5.93
2022-10-28T09:23:37.900Z,4.63
2022-10-28T09:26:50.044Z,4.80
2022-10-28T09:29:38.180Z,4.95
2022-10-28T09:32:48.592Z,5.40
2022-10-28T09:35:28.727Z,4.97
2022-10-28T09:38:28.126Z,5.18
2022-10-28T09:41:28.427Z,4.70
2022-10-28T09:44:46.383Z,5.07
2022-10-28T09:47:28.804Z,4.82
2022-10-28T09:50:12.190Z,4.72
2022-10-28T09:53:24.961Z,5.07
2022-10-28T09:55:56.624Z,4.13
2022-10-28T09:58:27.138Z,5.22
2022-10-28T10:00:57.912Z,5.10
2022-10-28T10:03:28.083Z,4.45
2022-10-28T10:06:18.624Z,4.53
2022-10-28T10:08:48.819Z,4.50
2022-10-28T10:11:42.988Z,4.38
2022-10-28T10:14:25.652Z,4.57
2022-10-28T10:17:11.520Z,4.60
2022-10-28T10:20:20.753Z,4.13
2022-10-28T10:22:50.725Z,4.28
2022-10-28T10:25:20.328Z,4.60
2022-10-28T10:28:14.107Z,4.25
2022-10-28T10:30:56.481Z,4.53
2022-10-28T10:33:37.623Z,5.10
2022-10-28T10:36:10.324Z,4.20
2022-10-28T10:38:54.525Z,4.20
2022-10-28T10:41:45.235Z,4.13
2022-10-28T10:44:20.923Z,4.32
2022-10-28T10:47:06.401Z,4.20
2022-10-28T10:49:37.293Z,4.28
2022-10-28T10:52:26.196Z,4.32
2022-10-28T10:55:23.601Z,4.43
2022-10-28T10:57:55.845Z,4.65
2022-10-28T11:00:37.569Z,3.92
2022-10-28T11:03:36.325Z,4.00
2022-10-28T11:06:39.811Z,3.90
2022-10-28T11:09:39.967Z,4.60
2022-10-28T11:12:36.668Z,4.00
2022-10-28T11:15:09.404Z,4.72
2022-10-28T11:17:39.365Z,3.42
2022-10-28T11:21:11.344Z,3.22
2022-10-28T11:24:17.576Z,3.60
2022-10-28T11:27:22.180Z,3.35
2022-10-28T11:29:53.344Z,4.35
2022-10-28T11:32:54.748Z,4.43
2022-10-28T11:36:11.161Z,3.38
2022-10-28T11:39:37.673Z,3.85
2022-10-28T11:43:05.479Z,3.97
2022-10-28T11:46:30.739Z,3.53
2022-10-28T11:50:22.522Z,4.00
2022-10-28T11:54:05.518Z,4.45
2022-10-28T11:57:11.113Z,3.28
2022-10-28T12:00:25.306Z,5.72
2022-10-28T12:03:13.909Z,4.22
2022-10-28T12:06:05.255Z,4.30
2022-10-28T12:08:59.231Z,4.07
2022-10-28T12:12:12.484Z,4.07
2022-10-28T12:15:26.246Z,3.63
2022-10-28T12:18:32.405Z,3.85
2022-10-28T12:21:32.724Z,5.28
2022-10-28T12:24:15.906Z,4.07
2022-10-28T12:26:58.387Z,4.07
2022-10-28T12:29:42.816Z,3.80
2022-10-28T12:32:23.160Z,4.30
2022-10-28T12:35:03.871Z,4.93
2022-10-28T12:38:20.098Z,4.30
2022-10-28T12:41:16.149Z,4.03
2022-10-28T12:44:09.070Z,3.85
2022-10-28T12:47:14.875Z,3.88
2022-10-28T12:50:13.232Z,4.03
2022-10-28T12:53:04.005Z,4.28
2022-10-28T12:56:12.060Z,4.03
2022-10-28T12:59:34.459Z,4.20
2022-10-28T13:02:20.014Z,4.13
2022-10-28T13:04:50.735Z,3.85
2022-10-28T13:08:04.586Z,4.30
2022-10-28T13:11:31.086Z,3.97
2022-10-28T13:14:54.299Z,4.45
2022-10-28T13:17:42.317Z,4.30
2022-10-28T13:20:49.818Z,3.67
2022-10-28T13:23:55.689Z,3.50
2022-10-28T13:26:35.775Z,4.32
2022-10-28T13:29:31.871Z,4.05
2022-10-28T13:32:02.590Z,3.75
2022-10-28T13:34:41.496Z,4.65
2022-10-28T13:37:25.516Z,3.75
2022-10-28T13:39:52.840Z,5.40
2022-10-28T13:42:24.054Z,4.57
2022-10-28T13:45:03.647Z,4.32
2022-10-28T13:47:38.246Z,3.72
2022-10-28T13:50:08.584Z,4.15
2022-10-28T13:53:29.589Z,3.55
2022-10-28T13:55:58.737Z,3.83
2022-10-28T13:58:28.617Z,4.20
2022-10-28T14:01:38.093Z,4.00
2022-10-28T14:04:34.993Z,4.10
2022-10-28T14:07:21.517Z,5.30
2022-10-28T14:10:21.250Z,3.75
2022-10-28T14:13:25.432Z,3.90
2022-10-28T14:16:43.221Z,3.63
2022-10-28T14:19:13.758Z,3.83
2022-10-28T14:22:02.808Z,3.97
2022-10-28T14:24:43.611Z,4.82
2022-10-28T14:27:15.328Z,4.10
2022-10-28T14:30:15.158Z,4.03
2022-10-28T14:33:11.275Z,3.47
2022-10-28T14:35:48.305Z,3.38
2022-10-28T14:38:50.430Z,3.78
2022-10-28T14:42:09.656Z,3.80
2022-10-28T14:45:09.906Z,3.47
2022-10-28T14:48:20.997Z,4.25
2022-10-28T14:50:55.844Z,4.30
2022-10-28T14:53:33.110Z,4.00
2022-10-28T14:56:20.897Z,4.18
2022-10-28T14:58:57.450Z,4.40
2022-10-28T15:01:56.005Z,4.32
2022-10-28T15:04:26.596Z,4.07
2022-10-28T15:06:58.121Z,4.90
2022-10-28T15:09:35.135Z,4.53
2022-10-28T15:12:17.922Z,4.00
2022-10-28T15:14:53.777Z,3.72
2022-10-28T15:17:42.516Z,4.78
2022-10-28T15:20:29.076Z,5.15
2022-10-28T15:23:23.259Z,5.15
2022-10-28T15:26:26.349Z,4.78
2022-10-28T15:28:56.758Z,4.57
2022-10-28T15:31:26.765Z,4.68
2022-10-28T15:33:56.738Z,4.13
2022-10-28T15:36:27.596Z,4.20
2022-10-28T15:39:18.162Z,4.03
2022-10-28T15:41:51.112Z,4.88
2022-10-28T15:44:37.260Z,5.35
2022-10-28T15:47:29.978Z,4.82
2022-10-28T15:50:30.526Z,4.55
2022-10-28T15:53:41.677Z,3.97
2022-10-28T15:56:14.328Z,3.95
2022-10-28T15:59:01.424Z,4.25
2022-10-28T16:01:40.931Z,4.18
2022-10-28T16:04:22.984Z,3.75
2022-10-28T16:06:58.360Z,4.85
2022-10-28T16:09:36.950Z,4.20
2022-10-28T16:12:26.691Z,5.13
2022-10-28T16:15:05.123Z,4.30
2022-10-28T16:17:42.576Z,4.03
2022-10-28T16:20:21.774Z,4.15
2022-10-28T16:22:53.140Z,5.18
2022-10-28T16:25:23.260Z,4.80
2022-10-28T16:27:57.520Z,4.80
2022-10-28T16:30:27.799Z,4.43
2022-10-28T16:32:57.952Z,4.53
2022-10-28T16:35:29.290Z,5.25
2022-10-28T16:37:59.353Z,4.10
2022-10-28T16:43:25.078Z,4.65
2022-10-28T16:45:58.138Z,4.72
2022-10-28T16:48:31.042Z,4.47
2022-10-28T16:51:10.096Z,4.70
2022-10-28T16:53:38.886Z,5.10
2022-10-28T16:56:13.579Z,4.50
2022-10-28T16:58:44.723Z,5.05
2022-10-28T17:01:22.274Z,5.55
2022-10-28T17:03:51.215Z,4.65
2022-10-28T17:06:20.958Z,4.30
2022-10-28T17:09:02.993Z,4.72
2022-10-28T17:11:33.533Z,4.60
2022-10-28T17:14:03.453Z,5.47
2022-10-28T17:16:33.452Z,4.22
2022-10-28T17:19:03.358Z,4.80
2022-10-28T17:21:33.024Z,5.13
2022-10-28T17:24:04.932Z,4.95
2022-10-28T17:26:35.445Z,5.45
2022-10-28T17:29:04.139Z,4.60
2022-10-28T17:31:33.771Z,5.57
2022-10-28T17:34:03.494Z,5.80
2022-10-28T17:36:34.131Z,5.45
2022-10-28T17:39:04.467Z,5.78
2022-10-28T17:41:34.139Z,6.03
2022-10-28T17:44:04.224Z,5.40
2022-10-28T17:46:33.948Z,6.43
2022-10-28T17:49:08.518Z,5.97
2022-10-28T17:51:38.878Z,6.35
2022-10-28T17:54:09.043Z,5.43
2022-10-28T17:56:41.959Z,6.70
2022-10-28T17:59:10.308Z,6.65
2022-10-28T18:01:40.352Z,5.93
2022-10-28T18:04:12.205Z,6.18
2022-10-28T18:06:41.675Z,5.82
2022-10-28T18:09:13.496Z,6.18
2022-10-28T18:11:43.515Z,6.90
2022-10-28T18:14:13.406Z,6.55
2022-10-28T18:16:46.880Z,7.13
2022-10-28T18:19:17.126Z,7.55
2022-10-28T18:21:47.738Z,7.03
2022-10-28T18:24:15.095Z,7.88
2022-10-28T18:26:45.089Z,9.18
2022-10-28T18:29:15.200Z,7.55
2022-10-28T18:31:45.338Z,8.02
2022-10-28T18:34:15.355Z,7.80
2022-10-28T18:36:45.247Z,8.45
2022-10-28T18:39:15.863Z,7.40
2022-10-28T18:41:46.141Z,7.97
2022-10-28T18:44:20.081Z,7.90
2022-10-28T18:46:51.652Z,6.80
2022-10-28T18:49:21.395Z,7.63
2022-10-28T18:51:51.371Z,7.13
2022-10-28T18:54:21.098Z,7.47
2022-10-28T18:56:55.097Z,6.60
2022-10-28T18:59:26.690Z,7.35
2022-10-28T19:01:56.643Z,6.75
2022-10-28T19:04:26.561Z,6.70
2022-10-28T19:07:01.652Z,7.13
2022-10-28T19:09:29.319Z,6.43
2022-10-28T19:11:59.179Z,7.10
2022-10-28T19:14:28.923Z,6.55
2022-10-28T19:16:58.637Z,5.70
2022-10-28T19:19:28.327Z,7.10
2022-10-28T19:21:58.146Z,6.70
2022-10-28T19:24:27.830Z,7.18
2022-10-28T19:26:58.520Z,6.95
2022-10-28T19:29:27.756Z,7.05
2022-10-28T19:31:58.073Z,6.82
2022-10-28T19:34:28.112Z,6.43
2022-10-28T19:36:58.386Z,6.28
2022-10-28T19:39:29.291Z,6.20
2022-10-28T19:41:59.317Z,6.28
2022-10-28T19:44:29.138Z,6.25
2022-10-28T19:46:59.063Z,6.20
2022-10-28T19:49:35.547Z,6.43
2022-10-28T19:52:07.392Z,6.10
2022-10-28T19:54:37.069Z,6.30
2022-10-28T19:57:06.964Z,6.72
2022-10-28T19:59:36.731Z,6.80
2022-10-28T20:02:06.763Z,6.90
2022-10-28T20:04:40.235Z,6.25
2022-10-28T20:07:09.496Z,7.10
2022-10-28T20:09:39.386Z,6.35
2022-10-28T20:12:12.956Z,6.20
2022-10-28T20:14:40.272Z,6.80
2022-10-28T20:17:11.929Z,7.47
2022-10-28T20:19:42.128Z,6.90
2022-10-28T20:22:12.231Z,6.50
2022-10-28T20:24:42.127Z,6.75
2022-10-28T20:27:11.868Z,7.43
2022-10-28T20:29:44.529Z,7.15
2022-10-28T20:32:11.865Z,5.82
2022-10-28T20:34:41.503Z,6.95
2022-10-28T20:37:11.386Z,6.32
2022-10-28T20:39:41.089Z,6.40
2022-10-28T20:42:16.368Z,6.93
2022-10-28T20:44:45.120Z,6.50
2022-10-28T20:47:14.715Z,7.00
2022-10-28T20:49:44.429Z,7.22
2022-10-28T20:52:16.690Z,6.70
2022-10-28T20:54:46.871Z,6.95
2022-10-28T20:57:16.630Z,7.70
2022-10-28T20:59:46.407Z,8.57
2022-10-28T21:02:16.247Z,7.55
2022-10-28T21:04:46.156Z,8.60
2022-10-28T21:07:15.977Z,8.93
2022-10-28T21:09:45.686Z,9.13
2022-10-28T21:12:15.782Z,9.27
2022-10-28T21:14:45.460Z,8.80
2022-10-28T21:17:15.427Z,8.88
2022-10-28T21:19:45.411Z,8.90
2022-10-28T21:22:15.160Z,7.55
2022-10-28T21:24:45.126Z,7.22
2022-10-28T21:27:14.709Z,7.93
2022-10-28T21:29:44.729Z,7.05
2022-10-28T21:32:14.503Z,7.78
2022-10-28T21:34:44.166Z,8.23
2022-10-28T21:37:13.899Z,7.88
2022-10-28T21:39:47.062Z,8.40
2022-10-28T21:42:18.421Z,7.60
2022-10-28T21:44:48.861Z,7.60
2022-10-28T21:47:18.133Z,7.60
2022-10-28T21:49:48.150Z,6.57
2022-10-28T21:52:18.277Z,7.80
2022-10-28T21:54:47.588Z,6.93
2022-10-28T21:57:17.639Z,7.13
2022-10-28T21:59:49.606Z,6.97
2022-10-28T22:02:17.330Z,7.07
2022-10-28T22:04:47.177Z,6.93
2022-10-28T22:07:17.727Z,7.18
2022-10-28T22:09:47.743Z,6.93
2022-10-28T22:12:18.010Z,7.43
2022-10-28T22:14:48.002Z,5.82
2022-10-28T22:17:18.023Z,5.70
2022-10-28T22:19:49.055Z,6.50
2022-10-28T22:22:19.073Z,8.15
2022-10-28T22:24:49.083Z,6.70
2022-10-28T22:27:20.057Z,7.63
2022-10-28T22:29:50.076Z,6.93
2022-10-28T22:32:20.066Z,7.65
2022-10-28T22:34:50.045Z,6.45
2022-10-28T22:37:20.068Z,7.50
2022-10-28T22:39:50.014Z,7.20
2022-10-28T22:42:20.501Z,7.85
2022-10-28T22:44:53.342Z,8.10
2022-10-28T22:47:23.363Z,6.75
2022-10-28T22:49:53.346Z,7.32
2022-10-28T22:52:23.320Z,7.60
2022-10-28T22:54:53.278Z,6.90
2022-10-28T22:57:23.616Z,6.93
2022-10-28T22:59:53.584Z,8.05
2022-10-28T23:02:23.629Z,7.22
2022-10-28T23:04:53.677Z,7.10
2022-10-28T23:07:23.703Z,7.80
2022-10-28T23:09:53.695Z,7.95
2022-10-28T23:12:24.012Z,7.75
2022-10-28T23:14:54.025Z,7.43
2022-10-28T23:17:24.037Z,7.03
2022-10-28T23:19:54.010Z,6.68
2022-10-28T23:22:24.074Z,6.88
2022-10-28T23:24:54.018Z,7.13
2022-10-28T23:27:23.981Z,6.68
2022-10-28T23:29:54.004Z,7.05
2022-10-28T23:32:24.025Z,6.10
2022-10-28T23:34:53.985Z,6.30
2022-10-28T23:37:24.025Z,6.03
2022-10-28T23:39:53.982Z,6.65
2022-10-28T23:46:57.770Z,6.70
2022-10-28T23:49:27.733Z,6.60
2022-10-28T23:51:58.025Z,6.60
2022-10-28T23:54:28.512Z,6.88
2022-10-28T23:56:58.508Z,6.10
2022-10-28T23:59:28.496Z,6.22
